sensor_id;sensor_type;location;lat;lon;timestamp;P1;durP1;ratioP1;P2;durP2;ratioP2
28311;SDS011;15572;48.810;9.148;2024-03-23T00:56:09;4.03;;;2.57;;
28311;SDS011;15572;48.810;9.148;2024-03-23T01:01:06;6.30;;;2.90;;
28311;SDS011;15572;48.810;9.148;2024-03-23T01:06:03;5.23;;;2.60;;
28311;SDS011;15572;48.810;9.148;2024-03-23T01:11:00;4.03;;;2.73;;
28311;SDS011;15572;48.810;9.148;2024-03-23T01:15:58;3.20;;;2.53;;
28311;SDS011;15572;48.810;9.148;2024-03-23T01:20:55;3.27;;;2.40;;
28311;SDS011;15572;48.810;9.148;2024-03-23T01:25:52;2.90;;;2.20;;
28311;SDS011;15572;48.810;9.148;2024-03-23T01:30:49;4.07;;;2.53;;
28311;SDS011;15572;48.810;9.148;2024-03-23T01:35:46;3.73;;;2.70;;
28311;SDS011;15572;48.810;9.148;2024-03-23T01:40:43;5.53;;;2.90;;
28311;SDS011;15572;48.810;9.148;2024-03-23T01:45:39;3.10;;;2.40;;
28311;SDS011;15572;48.810;9.148;2024-03-23T01:50:36;3.17;;;2.67;;
28311;SDS011;15572;48.810;9.148;2024-03-23T01:55:33;2.30;;;2.07;;
28311;SDS011;15572;48.810;9.148;2024-03-23T02:00:30;2.97;;;2.50;;
28311;SDS011;15572;48.810;9.148;2024-03-23T02:05:26;4.13;;;2.80;;
28311;SDS011;15572;48.810;9.148;2024-03-23T02:10:23;5.60;;;2.60;;
28311;SDS011;15572;48.810;9.148;2024-03-23T02:15:21;5.13;;;2.80;;
28311;SDS011;15572;48.810;9.148;2024-03-23T02:20:17;5.50;;;2.63;;
28311;SDS011;15572;48.810;9.148;2024-03-23T02:25:15;6.30;;;2.63;;
28311;SDS011;15572;48.810;9.148;2024-03-23T02:30:12;6.03;;;3.00;;
28311;SDS011;15572;48.810;9.148;2024-03-23T02:35:08;7.50;;;2.67;;
28311;SDS011;15572;48.810;9.148;2024-03-23T02:40:05;3.33;;;2.50;;
28311;SDS011;15572;48.810;9.148;2024-03-23T02:45:03;4.37;;;2.30;;
28311;SDS011;15572;48.810;9.148;2024-03-23T02:50:00;4.70;;;2.70;;
28311;SDS011;15572;48.810;9.148;2024-03-23T02:54:57;3.60;;;2.80;;
28311;SDS011;15572;48.810;9.148;2024-03-23T02:59:53;4.83;;;3.03;;
28311;SDS011;15572;48.810;9.148;2024-03-23T03:04:51;4.93;;;2.80;;
28311;SDS011;15572;48.810;9.148;2024-03-23T03:09:48;4.50;;;2.70;;
28311;SDS011;15572;48.810;9.148;2024-03-23T03:14:44;3.87;;;2.50;;
28311;SDS011;15572;48.810;9.148;2024-03-23T03:19:41;4.63;;;2.80;;
28311;SDS011;15572;48.810;9.148;2024-03-23T03:24:38;3.50;;;2.80;;
28311;SDS011;15572;48.810;9.148;2024-03-23T03:29:35;5.70;;;2.80;;
28311;SDS011;15572;48.810;9.148;2024-03-23T03:34:31;4.77;;;2.57;;
28311;SDS011;15572;48.810;9.148;2024-03-23T03:39:28;3.53;;;2.50;;
28311;SDS011;15572;48.810;9.148;2024-03-23T03:44:25;5.50;;;2.90;;
28311;SDS011;15572;48.810;9.148;2024-03-23T03:49:22;3.50;;;2.77;;
28311;SDS011;15572;48.810;9.148;2024-03-23T03:54:18;3.87;;;2.63;;
28311;SDS011;15572;48.810;9.148;2024-03-23T03:59:15;3.53;;;2.60;;
28311;SDS011;15572;48.810;9.148;2024-03-23T04:04:13;6.63;;;2.70;;
28311;SDS011;15572;48.810;9.148;2024-03-23T04:09:11;3.57;;;2.50;;
28311;SDS011;15572;48.810;9.148;2024-03-23T04:14:07;3.13;;;2.40;;
28311;SDS011;15572;48.810;9.148;2024-03-23T04:19:04;3.37;;;2.50;;
28311;SDS011;15572;48.810;9.148;2024-03-23T04:24:03;4.57;;;2.50;;
28311;SDS011;15572;48.810;9.148;2024-03-23T04:29:00;4.20;;;2.70;;
28311;SDS011;15572;48.810;9.148;2024-03-23T04:33:56;6.13;;;3.33;;
28311;SDS011;15572;48.810;9.148;2024-03-23T04:38:53;4.13;;;3.27;;
28311;SDS011;15572;48.810;9.148;2024-03-23T04:43:50;5.73;;;3.80;;
28311;SDS011;15572;48.810;9.148;2024-03-23T04:48:47;5.83;;;4.40;;
28311;SDS011;15572;48.810;9.148;2024-03-23T04:53:43;6.00;;;4.73;;
28311;SDS011;15572;48.810;9.148;2024-03-23T04:58:39;8.30;;;5.60;;
28311;SDS011;15572;48.810;9.148;2024-03-23T05:03:37;12.20;;;6.93;;
28311;SDS011;15572;48.810;9.148;2024-03-23T05:08:34;15.63;;;11.07;;
28311;SDS011;15572;48.810;9.148;2024-03-23T05:13:30;16.47;;;11.47;;
28311;SDS011;15572;48.810;9.148;2024-03-23T05:18:26;17.47;;;12.17;;
28311;SDS011;15572;48.810;9.148;2024-03-23T05:23:25;19.97;;;12.97;;
28311;SDS011;15572;48.810;9.148;2024-03-23T05:28:21;19.30;;;13.50;;
28311;SDS011;15572;48.810;9.148;2024-03-23T05:33:18;21.77;;;13.53;;
28311;SDS011;15572;48.810;9.148;2024-03-23T05:38:14;18.33;;;12.80;;
28311;SDS011;15572;48.810;9.148;2024-03-23T05:43:12;21.00;;;12.70;;
28311;SDS011;15572;48.810;9.148;2024-03-23T05:48:08;18.63;;;12.40;;
28311;SDS011;15572;48.810;9.148;2024-03-23T05:53:05;15.63;;;9.63;;
28311;SDS011;15572;48.810;9.148;2024-03-23T05:58:01;10.40;;;6.53;;
28311;SDS011;15572;48.810;9.148;2024-03-23T06:02:59;8.53;;;4.20;;
28311;SDS011;15572;48.810;9.148;2024-03-23T06:07:55;5.13;;;4.00;;
28311;SDS011;15572;48.810;9.148;2024-03-23T06:12:52;6.67;;;3.70;;
28311;SDS011;15572;48.810;9.148;2024-03-23T06:17:48;4.97;;;2.70;;
28311;SDS011;15572;48.810;9.148;2024-03-23T06:22:46;3.50;;;2.60;;
28311;SDS011;15572;48.810;9.148;2024-03-23T06:27:42;5.77;;;2.90;;
28311;SDS011;15572;48.810;9.148;2024-03-23T06:32:39;3.67;;;2.67;;
28311;SDS011;15572;48.810;9.148;2024-03-23T06:37:36;2.93;;;2.03;;
28311;SDS011;15572;48.810;9.148;2024-03-23T06:42:35;1.50;;;1.00;;
28311;SDS011;15572;48.810;9.148;2024-03-23T06:47:32;1.63;;;1.50;;
28311;SDS011;15572;48.810;9.148;2024-03-23T06:52:28;1.27;;;0.90;;
28311;SDS011;15572;48.810;9.148;2024-03-23T06:57:25;0.60;;;0.60;;
28311;SDS011;15572;48.810;9.148;2024-03-23T07:02:23;0.80;;;0.80;;
28311;SDS011;15572;48.810;9.148;2024-03-23T07:07:19;0.70;;;0.70;;
28311;SDS011;15572;48.810;9.148;2024-03-23T07:12:15;0.50;;;0.50;;
28311;SDS011;15572;48.810;9.148;2024-03-23T07:17:12;0.70;;;0.70;;
28311;SDS011;15572;48.810;9.148;2024-03-23T07:22:10;0.67;;;0.67;;
28311;SDS011;15572;48.810;9.148;2024-03-23T07:27:06;0.70;;;0.70;;
28311;SDS011;15572;48.810;9.148;2024-03-23T07:32:05;0.70;;;0.70;;
28311;SDS011;15572;48.810;9.148;2024-03-23T07:37:01;0.77;;;0.77;;
28311;SDS011;15572;48.810;9.148;2024-03-23T07:41:59;0.87;;;0.80;;
28311;SDS011;15572;48.810;9.148;2024-03-23T07:46:55;0.80;;;0.80;;
28311;SDS011;15572;48.810;9.148;2024-03-23T07:51:52;0.70;;;0.70;;
28311;SDS011;15572;48.810;9.148;2024-03-23T07:56:48;0.60;;;0.40;;
28311;SDS011;15572;48.810;9.148;2024-03-23T08:01:46;0.80;;;0.80;;
28311;SDS011;15572;48.810;9.148;2024-03-23T08:06:43;1.57;;;0.90;;
28311;SDS011;15572;48.810;9.148;2024-03-23T08:11:39;0.90;;;0.77;;
28311;SDS011;15572;48.810;9.148;2024-03-23T08:16:36;0.80;;;0.80;;
28311;SDS011;15572;48.810;9.148;2024-03-23T08:21:34;0.87;;;0.87;;
28311;SDS011;15572;48.810;9.148;2024-03-23T08:26:30;1.83;;;1.30;;
28311;SDS011;15572;48.810;9.148;2024-03-23T08:31:27;0.87;;;0.87;;
28311;SDS011;15572;48.810;9.148;2024-03-23T08:36:24;1.60;;;0.97;;
28311;SDS011;15572;48.810;9.148;2024-03-23T08:41:21;1.67;;;1.17;;
28311;SDS011;15572;48.810;9.148;2024-03-23T08:46:18;1.43;;;1.33;;
28311;SDS011;15572;48.810;9.148;2024-03-23T08:51:15;0.80;;;0.80;;
28311;SDS011;15572;48.810;9.148;2024-03-23T08:56:12;4.70;;;2.30;;
28311;SDS011;15572;48.810;9.148;2024-03-23T09:01:10;5.50;;;2.10;;
28311;SDS011;15572;48.810;9.148;2024-03-23T09:06:08;4.70;;;2.10;;
28311;SDS011;15572;48.810;9.148;2024-03-23T09:11:07;3.30;;;2.20;;
28311;SDS011;15572;48.810;9.148;2024-03-23T09:16:04;5.50;;;2.93;;
28311;SDS011;15572;48.810;9.148;2024-03-23T09:21:03;5.53;;;2.50;;
28311;SDS011;15572;48.810;9.148;2024-03-23T09:26:02;5.83;;;2.67;;
28311;SDS011;15572;48.810;9.148;2024-03-23T09:31:02;5.63;;;2.60;;
28311;SDS011;15572;48.810;9.148;2024-03-23T09:36:02;5.37;;;2.77;;
28311;SDS011;15572;48.810;9.148;2024-03-23T09:41:00;7.33;;;3.30;;
28311;SDS011;15572;48.810;9.148;2024-03-23T09:46:02;5.53;;;2.70;;
28311;SDS011;15572;48.810;9.148;2024-03-23T09:51:00;4.93;;;2.53;;
28311;SDS011;15572;48.810;9.148;2024-03-23T09:56:00;4.27;;;2.83;;
28311;SDS011;15572;48.810;9.148;2024-03-23T10:00:56;6.30;;;2.77;;
28311;SDS011;15572;48.810;9.148;2024-03-23T10:06:00;13.57;;;3.33;;
28311;SDS011;15572;48.810;9.148;2024-03-23T10:10:58;6.60;;;3.43;;
28311;SDS011;15572;48.810;9.148;2024-03-23T10:16:10;7.07;;;3.53;;
28311;SDS011;15572;48.810;9.148;2024-03-23T10:21:07;7.50;;;2.87;;
28311;SDS011;15572;48.810;9.148;2024-03-23T10:26:13;7.83;;;2.77;;
28311;SDS011;15572;48.810;9.148;2024-03-23T10:31:12;5.63;;;2.60;;
28311;SDS011;15572;48.810;9.148;2024-03-23T10:36:09;6.60;;;2.60;;
28311;SDS011;15572;48.810;9.148;2024-03-23T10:41:05;6.90;;;2.50;;
28311;SDS011;15572;48.810;9.148;2024-03-23T10:46:05;5.73;;;3.00;;
28311;SDS011;15572;48.810;9.148;2024-03-23T10:51:02;6.38;;;3.00;;
28311;SDS011;15572;48.810;9.148;2024-03-23T10:55:59;6.10;;;3.28;;
28311;SDS011;15572;48.810;9.148;2024-03-23T11:00:56;6.50;;;3.70;;
28311;SDS011;15572;48.810;9.148;2024-03-23T11:05:54;6.90;;;3.50;;
28311;SDS011;15572;48.810;9.148;2024-03-23T11:10:51;5.10;;;3.00;;
28311;SDS011;15572;48.810;9.148;2024-03-23T11:15:47;6.00;;;3.97;;
28311;SDS011;15572;48.810;9.148;2024-03-23T11:20:44;4.73;;;2.60;;
28311;SDS011;15572;48.810;9.148;2024-03-23T11:25:42;7.17;;;2.47;;
28311;SDS011;15572;48.810;9.148;2024-03-23T11:30:38;3.00;;;1.90;;
28311;SDS011;15572;48.810;9.148;2024-03-23T11:35:36;3.10;;;1.43;;
28311;SDS011;15572;48.810;9.148;2024-03-23T11:40:35;4.07;;;2.57;;
28311;SDS011;15572;48.810;9.148;2024-03-23T11:45:35;4.73;;;2.60;;
28311;SDS011;15572;48.810;9.148;2024-03-23T11:50:32;3.37;;;2.00;;
28311;SDS011;15572;48.810;9.148;2024-03-23T11:55:30;4.70;;;1.87;;
28311;SDS011;15572;48.810;9.148;2024-03-23T12:00:26;5.77;;;2.10;;
28311;SDS011;15572;48.810;9.148;2024-03-23T12:05:26;4.93;;;1.70;;
28311;SDS011;15572;48.810;9.148;2024-03-23T12:10:23;3.50;;;1.20;;
28311;SDS011;15572;48.810;9.148;2024-03-23T12:15:19;4.03;;;1.50;;
28311;SDS011;15572;48.810;9.148;2024-03-23T12:20:17;2.43;;;1.03;;
28311;SDS011;15572;48.810;9.148;2024-03-23T12:25:15;5.53;;;1.43;;
28311;SDS011;15572;48.810;9.148;2024-03-23T12:30:12;4.30;;;1.83;;
28311;SDS011;15572;48.810;9.148;2024-03-23T12:35:08;4.93;;;2.03;;
28311;SDS011;15572;48.810;9.148;2024-03-23T12:40:06;4.57;;;1.80;;
28311;SDS011;15572;48.810;9.148;2024-03-23T12:45:05;4.20;;;1.50;;
28311;SDS011;15572;48.810;9.148;2024-03-23T12:50:03;6.43;;;1.70;;
28311;SDS011;15572;48.810;9.148;2024-03-23T12:55:00;6.17;;;2.10;;
28311;SDS011;15572;48.810;9.148;2024-03-23T12:59:57;4.00;;;1.43;;
28311;SDS011;15572;48.810;9.148;2024-03-23T13:04:55;6.80;;;2.20;;
28311;SDS011;15572;48.810;9.148;2024-03-23T13:09:52;8.23;;;1.90;;
28311;SDS011;15572;48.810;9.148;2024-03-23T13:14:49;4.23;;;1.90;;
28311;SDS011;15572;48.810;9.148;2024-03-23T13:19:45;6.00;;;1.80;;
28311;SDS011;15572;48.810;9.148;2024-03-23T13:24:43;3.50;;;1.40;;
28311;SDS011;15572;48.810;9.148;2024-03-23T13:29:39;5.27;;;1.90;;
28311;SDS011;15572;48.810;9.148;2024-03-23T13:34:36;5.77;;;1.77;;
28311;SDS011;15572;48.810;9.148;2024-03-23T13:39:32;8.57;;;1.83;;
28311;SDS011;15572;48.810;9.148;2024-03-23T13:44:30;4.20;;;1.47;;
28311;SDS011;15572;48.810;9.148;2024-03-23T13:49:27;4.13;;;1.57;;
28311;SDS011;15572;48.810;9.148;2024-03-23T13:54:24;3.10;;;1.30;;
28311;SDS011;15572;48.810;9.148;2024-03-23T13:59:21;5.63;;;1.77;;
28311;SDS011;15572;48.810;9.148;2024-03-23T14:04:20;1.73;;;1.00;;
28311;SDS011;15572;48.810;9.148;2024-03-23T14:09:17;2.23;;;1.40;;
28311;SDS011;15572;48.810;9.148;2024-03-23T14:14:17;5.50;;;1.60;;
28311;SDS011;15572;48.810;9.148;2024-03-23T14:19:15;4.67;;;1.60;;
28311;SDS011;15572;48.810;9.148;2024-03-23T14:24:13;4.07;;;1.33;;
28311;SDS011;15572;48.810;9.148;2024-03-23T14:29:09;3.30;;;1.27;;
28311;SDS011;15572;48.810;9.148;2024-03-23T14:34:06;1.40;;;1.30;;
28311;SDS011;15572;48.810;9.148;2024-03-23T14:39:02;5.60;;;1.50;;
28311;SDS011;15572;48.810;9.148;2024-03-23T14:44:00;3.17;;;1.13;;
28311;SDS011;15572;48.810;9.148;2024-03-23T14:48:56;3.83;;;2.10;;
28311;SDS011;15572;48.810;9.148;2024-03-23T14:53:54;2.90;;;1.43;;
28311;SDS011;15572;48.810;9.148;2024-03-23T14:58:52;4.63;;;1.60;;
28311;SDS011;15572;48.810;9.148;2024-03-23T15:03:52;3.67;;;1.07;;
28311;SDS011;15572;48.810;9.148;2024-03-23T15:08:48;3.37;;;1.27;;
28311;SDS011;15572;48.810;9.148;2024-03-23T15:13:45;4.03;;;1.30;;
28311;SDS011;15572;48.810;9.148;2024-03-23T15:18:41;4.00;;;1.27;;
28311;SDS011;15572;48.810;9.148;2024-03-23T15:23:39;2.63;;;0.93;;
28311;SDS011;15572;48.810;9.148;2024-03-23T15:28:37;2.33;;;1.03;;
28311;SDS011;15572;48.810;9.148;2024-03-23T15:33:49;2.17;;;1.10;;
28311;SDS011;15572;48.810;9.148;2024-03-23T15:38:47;2.50;;;1.30;;
28311;SDS011;15572;48.810;9.148;2024-03-23T15:43:44;1.13;;;1.03;;
28311;SDS011;15572;48.810;9.148;2024-03-23T15:48:40;1.57;;;0.90;;
28311;SDS011;15572;48.810;9.148;2024-03-23T15:53:41;3.60;;;1.17;;
28311;SDS011;15572;48.810;9.148;2024-03-23T15:58:38;2.57;;;1.10;;
28311;SDS011;15572;48.810;9.148;2024-03-23T16:03:35;2.80;;;1.00;;
28311;SDS011;15572;48.810;9.148;2024-03-23T16:08:32;1.03;;;0.90;;
28311;SDS011;15572;48.810;9.148;2024-03-23T16:13:29;1.20;;;0.80;;
28311;SDS011;15572;48.810;9.148;2024-03-23T16:18:28;2.30;;;0.93;;
28311;SDS011;15572;48.810;9.148;2024-03-23T16:23:24;2.13;;;1.00;;
28311;SDS011;15572;48.810;9.148;2024-03-23T16:28:25;2.77;;;1.20;;
28311;SDS011;15572;48.810;9.148;2024-03-23T16:33:24;4.10;;;0.97;;
28311;SDS011;15572;48.810;9.148;2024-03-23T16:38:22;1.63;;;0.90;;
28311;SDS011;15572;48.810;9.148;2024-03-23T16:43:18;1.80;;;0.80;;
28311;SDS011;15572;48.810;9.148;2024-03-23T16:48:15;1.40;;;0.50;;
28311;SDS011;15572;48.810;9.148;2024-03-23T16:53:11;1.90;;;0.63;;
28311;SDS011;15572;48.810;9.148;2024-03-23T16:58:09;1.10;;;0.77;;
28311;SDS011;15572;48.810;9.148;2024-03-23T17:03:05;1.60;;;0.80;;
28311;SDS011;15572;48.810;9.148;2024-03-23T17:08:03;2.27;;;0.93;;
28311;SDS011;15572;48.810;9.148;2024-03-23T17:13:00;2.33;;;1.00;;
28311;SDS011;15572;48.810;9.148;2024-03-23T17:17:58;3.73;;;1.20;;
28311;SDS011;15572;48.810;9.148;2024-03-23T17:22:55;2.90;;;1.20;;
28311;SDS011;15572;48.810;9.148;2024-03-23T17:27:51;2.87;;;1.87;;
28311;SDS011;15572;48.810;9.148;2024-03-23T17:32:48;3.03;;;1.57;;
28311;SDS011;15572;48.810;9.148;2024-03-23T17:37:46;1.40;;;1.10;;
28311;SDS011;15572;48.810;9.148;2024-03-23T17:42:42;1.80;;;1.20;;
28311;SDS011;15572;48.810;9.148;2024-03-23T17:47:39;1.50;;;0.73;;
28311;SDS011;15572;48.810;9.148;2024-03-23T17:52:36;0.93;;;0.77;;
28311;SDS011;15572;48.810;9.148;2024-03-23T17:57:34;0.70;;;0.70;;
28311;SDS011;15572;48.810;9.148;2024-03-23T18:02:31;3.87;;;1.23;;
28311;SDS011;15572;48.810;9.148;2024-03-23T18:07:27;3.00;;;1.30;;
28311;SDS011;15572;48.810;9.148;2024-03-23T18:12:24;1.50;;;1.03;;
28311;SDS011;15572;48.810;9.148;2024-03-23T18:17:22;3.10;;;1.20;;
28311;SDS011;15572;48.810;9.148;2024-03-23T18:22:18;2.07;;;1.17;;
28311;SDS011;15572;48.810;9.148;2024-03-23T18:27:15;1.33;;;1.00;;
28311;SDS011;15572;48.810;9.148;2024-03-23T18:32:11;1.87;;;1.30;;
28311;SDS011;15572;48.810;9.148;2024-03-23T18:37:09;3.33;;;1.30;;
28311;SDS011;15572;48.810;9.148;2024-03-23T18:42:05;2.70;;;1.30;;
28311;SDS011;15572;48.810;9.148;2024-03-23T18:47:02;5.10;;;2.83;;
28311;SDS011;15572;48.810;9.148;2024-03-23T18:51:58;3.70;;;2.00;;
28311;SDS011;15572;48.810;9.148;2024-03-23T18:56:56;3.03;;;1.70;;
28311;SDS011;15572;48.810;9.148;2024-03-23T19:01:53;3.33;;;1.40;;
28311;SDS011;15572;48.810;9.148;2024-03-23T19:06:49;3.43;;;0.97;;
28311;SDS011;15572;48.810;9.148;2024-03-23T19:11:46;3.00;;;1.23;;
28311;SDS011;15572;48.810;9.148;2024-03-23T19:16:44;2.47;;;1.77;;
28311;SDS011;15572;48.810;9.148;2024-03-23T19:21:40;2.70;;;2.00;;
28311;SDS011;15572;48.810;9.148;2024-03-23T19:26:37;2.77;;;1.70;;
28311;SDS011;15572;48.810;9.148;2024-03-23T19:31:33;2.00;;;1.50;;
28311;SDS011;15572;48.810;9.148;2024-03-23T19:36:31;2.20;;;1.50;;
28311;SDS011;15572;48.810;9.148;2024-03-23T19:41:27;4.07;;;2.27;;
28311;SDS011;15572;48.810;9.148;2024-03-23T19:46:24;3.77;;;1.93;;
28311;SDS011;15572;48.810;9.148;2024-03-23T19:51:20;2.30;;;1.80;;
28311;SDS011;15572;48.810;9.148;2024-03-23T19:56:18;3.67;;;2.00;;
28311;SDS011;15572;48.810;9.148;2024-03-23T20:01:15;2.60;;;1.60;;
28311;SDS011;15572;48.810;9.148;2024-03-23T20:06:13;3.87;;;1.80;;
28311;SDS011;15572;48.810;9.148;2024-03-23T20:11:10;6.63;;;1.60;;
28311;SDS011;15572;48.810;9.148;2024-03-23T20:16:08;2.07;;;1.37;;
28311;SDS011;15572;48.810;9.148;2024-03-23T20:21:06;3.83;;;1.30;;
28311;SDS011;15572;48.810;9.148;2024-03-23T20:26:03;2.53;;;1.50;;
28311;SDS011;15572;48.810;9.148;2024-03-23T20:31:00;5.27;;;1.70;;
28311;SDS011;15572;48.810;9.148;2024-03-23T20:35:59;1.53;;;1.30;;
28311;SDS011;15572;48.810;9.148;2024-03-23T20:40:56;2.73;;;1.47;;
28311;SDS011;15572;48.810;9.148;2024-03-23T20:45:54;1.53;;;1.17;;
28311;SDS011;15572;48.810;9.148;2024-03-23T20:50:55;1.80;;;1.10;;
28311;SDS011;15572;48.810;9.148;2024-03-23T20:55:54;2.67;;;1.40;;
28311;SDS011;15572;48.810;9.148;2024-03-23T21:00:51;1.83;;;1.40;;
28311;SDS011;15572;48.810;9.148;2024-03-23T21:05:51;2.33;;;1.20;;
28311;SDS011;15572;48.810;9.148;2024-03-23T21:10:48;4.50;;;1.50;;
28311;SDS011;15572;48.810;9.148;2024-03-23T21:15:47;4.27;;;1.50;;
28311;SDS011;15572;48.810;9.148;2024-03-23T21:20:44;1.83;;;1.47;;
28311;SDS011;15572;48.810;9.148;2024-03-23T21:25:41;2.73;;;1.63;;
28311;SDS011;15572;48.810;9.148;2024-03-23T21:30:40;3.83;;;1.70;;
28311;SDS011;15572;48.810;9.148;2024-03-23T21:35:37;2.17;;;1.50;;
28311;SDS011;15572;48.810;9.148;2024-03-23T21:40:34;3.20;;;1.57;;
28311;SDS011;15572;48.810;9.148;2024-03-23T21:45:30;1.87;;;1.40;;
28311;SDS011;15572;48.810;9.148;2024-03-23T21:50:27;3.23;;;1.73;;
28311;SDS011;15572;48.810;9.148;2024-03-23T21:55:25;6.97;;;2.70;;
28311;SDS011;15572;48.810;9.148;2024-03-23T22:00:21;1.23;;;1.00;;
28311;SDS011;15572;48.810;9.148;2024-03-23T22:05:17;5.17;;;1.50;;
28311;SDS011;15572;48.810;9.148;2024-03-23T22:10:14;4.30;;;1.40;;
28311;SDS011;15572;48.810;9.148;2024-03-23T22:15:12;1.77;;;1.23;;
28311;SDS011;15572;48.810;9.148;2024-03-23T22:20:10;2.27;;;1.30;;
28311;SDS011;15572;48.810;9.148;2024-03-23T22:25:07;2.53;;;1.30;;
28311;SDS011;15572;48.810;9.148;2024-03-23T22:30:04;3.60;;;1.20;;
28311;SDS011;15572;48.810;9.148;2024-03-23T22:35:03;3.07;;;1.20;;
28311;SDS011;15572;48.810;9.148;2024-03-23T22:39:59;2.67;;;1.30;;
28311;SDS011;15572;48.810;9.148;2024-03-23T22:44:56;2.93;;;1.50;;
28311;SDS011;15572;48.810;9.148;2024-03-23T22:49:52;8.83;;;3.83;;
28311;SDS011;15572;48.810;9.148;2024-03-23T22:54:52;4.50;;;1.97;;
28311;SDS011;15572;48.810;9.148;2024-03-23T22:59:49;2.87;;;1.70;;
28311;SDS011;15572;48.810;9.148;2024-03-23T23:04:45;5.10;;;1.80;;
28311;SDS011;15572;48.810;9.148;2024-03-23T23:09:42;3.30;;;1.73;;
28311;SDS011;15572;48.810;9.148;2024-03-23T23:14:40;3.37;;;1.87;;
28311;SDS011;15572;48.810;9.148;2024-03-23T23:19:36;4.87;;;2.00;;
28311;SDS011;15572;48.810;9.148;2024-03-23T23:24:33;4.37;;;1.30;;
28311;SDS011;15572;48.810;9.148;2024-03-23T23:29:32;3.13;;;1.60;;
28311;SDS011;15572;48.810;9.148;2024-03-23T23:34:30;1.63;;;1.37;;
28311;SDS011;15572;48.810;9.148;2024-03-23T23:39:26;2.60;;;1.20;;
28311;SDS011;15572;48.810;9.148;2024-03-23T23:44:23;2.30;;;1.50;;
28311;SDS011;15572;48.810;9.148;2024-03-23T23:49:19;3.43;;;1.70;;
28311;SDS011;15572;48.810;9.148;2024-03-23T23:54:17;2.67;;;1.23;;
28311;SDS011;15572;48.810;9.148;2024-03-23T23:59:13;1.87;;;1.50;;
